createdAt,value
2018-07-21T00:00:08.048Z,3.90
2018-07-21T00:01:08.043Z,4.20
2018-07-21T00:05:32.256Z,3.90
2018-07-21T00:06:11.261Z,4.10
2018-07-21T00:07:17.260Z,4.40
2018-07-21T00:09:43.525Z,4.40
2018-07-21T00:12:16.895Z,4.10
2018-07-21T00:13:35.228Z,4.40
2018-07-21T00:14:14.919Z,3.90
2018-07-21T00:15:35.902Z,4.20
2018-07-21T00:16:16.401Z,4.00
2018-07-21T00:17:15.402Z,4.00
2018-07-21T00:18:15.404Z,4.30
2018-07-21T00:19:16.401Z,4.00
2018-07-21T00:20:15.903Z,4.10
2018-07-21T00:21:36.903Z,4.40
2018-07-21T00:22:15.903Z,4.10
2018-07-21T00:23:15.902Z,4.10
2018-07-21T00:24:15.503Z,4.10
2018-07-21T00:25:16.410Z,4.00
2018-07-21T00:26:16.405Z,4.20
2018-07-21T00:27:16.402Z,4.00
2018-07-21T00:28:40.381Z,3.90
2018-07-21T00:30:48.255Z,4.50
2018-07-21T00:31:48.265Z,4.30
2018-07-21T00:32:48.262Z,3.90
2018-07-21T00:33:47.862Z,4.20
2018-07-21T00:34:48.763Z,4.20
2018-07-21T00:35:48.763Z,4.20
2018-07-21T00:36:48.762Z,4.20
2018-07-21T00:41:12.193Z,4.10
2018-07-21T00:43:44.985Z,4.30
2018-07-21T00:44:44.992Z,4.80
2018-07-21T00:45:23.993Z,4.20
2018-07-21T00:46:23.473Z,4.20
2018-07-21T00:47:45.504Z,4.40
2018-07-21T00:48:24.493Z,4.10
2018-07-21T00:49:26.924Z,4.50
2018-07-21T00:50:24.492Z,4.20
2018-07-21T00:51:26.993Z,4.20
2018-07-21T00:52:24.990Z,4.30
2018-07-21T00:53:26.427Z,4.60
2018-07-21T00:54:25.062Z,4.60
2018-07-21T00:55:24.993Z,4.10
2018-07-21T00:56:25.492Z,4.80
2018-07-21T00:57:25.499Z,4.20
2018-07-21T00:58:25.494Z,4.80
2018-07-21T00:59:25.500Z,4.30
2018-07-21T01:01:25.993Z,4.10
2018-07-21T01:02:25.998Z,4.50
2018-07-21T01:03:25.989Z,4.00
2018-07-21T01:05:57.767Z,4.80
2018-07-21T01:06:57.770Z,4.00
2018-07-21T01:07:57.783Z,4.40
2018-07-21T01:08:58.284Z,4.50
2018-07-21T01:09:58.273Z,4.50
2018-07-21T01:10:58.275Z,4.70
2018-07-21T01:11:58.274Z,4.60
2018-07-21T01:12:58.786Z,4.00
2018-07-21T01:14:02.206Z,4.30
2018-07-21T01:15:20.709Z,4.70
2018-07-21T01:15:58.774Z,4.10
2018-07-21T01:17:00.242Z,4.50
2018-07-21T01:17:59.269Z,4.10
2018-07-21T01:19:00.249Z,4.50
2018-07-21T01:20:20.273Z,4.80
2018-07-21T01:20:59.274Z,4.30
2018-07-21T01:22:22.206Z,4.10
2018-07-21T01:22:59.781Z,4.30
2018-07-21T01:24:20.779Z,4.70
2018-07-21T01:25:00.772Z,4.50
2018-07-21T01:26:00.274Z,4.10
2018-07-21T01:27:00.274Z,4.00
2018-07-21T01:27:59.624Z,4.30
2018-07-21T01:29:00.270Z,4.40
2018-07-21T01:30:20.855Z,4.20
2018-07-21T01:31:00.777Z,4.30
2018-07-21T01:32:00.774Z,4.50
2018-07-21T01:33:21.774Z,4.30
2018-07-21T01:34:02.206Z,4.60
2018-07-21T01:35:01.275Z,4.10
2018-07-21T01:36:01.274Z,4.20
2018-07-21T01:37:01.274Z,4.70
2018-07-21T01:38:01.273Z,4.10
2018-07-21T01:39:01.773Z,4.20
2018-07-21T01:41:55.596Z,5.00
2018-07-21T01:42:33.164Z,4.90
2018-07-21T01:43:33.163Z,4.40
2018-07-21T01:45:33.160Z,4.60
2018-07-21T01:46:33.160Z,4.60
2018-07-21T01:47:33.170Z,5.00
2018-07-21T01:48:33.274Z,4.80
2018-07-21T01:49:33.663Z,4.60
2018-07-21T01:50:33.665Z,4.50
2018-07-21T01:51:33.671Z,4.90
2018-07-21T01:54:05.960Z,4.80
2018-07-21T01:55:05.970Z,4.60
2018-07-21T01:56:05.965Z,4.30
2018-07-21T01:57:27.466Z,4.70
2018-07-21T01:58:09.417Z,4.60
2018-07-21T01:59:06.463Z,4.60
2018-07-21T02:00:06.550Z,5.30
2018-07-21T02:01:05.998Z,4.80
2018-07-21T02:02:06.963Z,4.60
2018-07-21T02:03:06.963Z,4.70
2018-07-21T02:04:06.970Z,4.80
2018-07-21T02:05:06.963Z,5.10
2018-07-21T02:06:07.466Z,4.60
2018-07-21T02:07:07.466Z,4.80
2018-07-21T02:08:07.466Z,5.10
2018-07-21T02:09:07.964Z,4.90
2018-07-21T02:10:30.975Z,5.20
2018-07-21T02:11:28.965Z,5.40
2018-07-21T02:12:09.997Z,4.80
2018-07-21T02:13:07.988Z,4.90
2018-07-21T02:14:30.902Z,5.50
2018-07-21T02:15:13.395Z,5.40
2018-07-21T02:16:30.403Z,4.90
2018-07-21T02:17:08.464Z,4.90
2018-07-21T02:18:09.896Z,5.50
2018-07-21T02:19:08.963Z,5.30
2018-07-21T02:20:08.964Z,5.20
2018-07-21T02:21:08.438Z,5.30
2018-07-21T02:23:40.719Z,5.40
2018-07-21T02:25:01.709Z,5.40
2018-07-21T02:26:02.201Z,5.90
2018-07-21T02:26:43.686Z,5.70
2018-07-21T02:27:41.205Z,5.30
2018-07-21T02:28:43.200Z,5.60
2018-07-21T02:29:42.209Z,5.80
2018-07-21T02:30:55.699Z,5.70
2018-07-21T02:31:40.956Z,5.90
2018-07-21T02:32:41.701Z,5.60
2018-07-21T02:33:41.704Z,5.40
2018-07-21T02:38:06.166Z,6.00
2018-07-21T02:38:46.172Z,6.50
2018-07-21T02:39:45.218Z,6.30
2018-07-21T02:41:06.175Z,5.90
2018-07-21T02:42:06.675Z,5.80
2018-07-21T02:43:06.675Z,6.10
2018-07-21T02:43:45.033Z,6.30
2018-07-21T02:44:45.677Z,6.40
2018-07-21T02:46:07.172Z,6.10
2018-07-21T02:46:48.148Z,5.80
2018-07-21T02:47:46.183Z,6.30
2018-07-21T02:48:47.679Z,5.90
2018-07-21T02:49:46.688Z,6.10
2018-07-21T02:51:00.673Z,6.00
2018-07-21T02:51:46.673Z,5.70
2018-07-21T02:53:07.675Z,6.00
2018-07-21T02:54:08.173Z,6.40
2018-07-21T02:54:48.172Z,6.30
2018-07-21T02:56:10.173Z,6.50
2018-07-21T02:56:47.179Z,6.30
2018-07-21T02:58:01.689Z,5.70
2018-07-21T02:59:08.674Z,6.10
2018-07-21T02:59:49.112Z,6.70
2018-07-21T03:00:47.684Z,6.50
2018-07-21T03:02:08.140Z,6.30
2018-07-21T03:03:09.173Z,6.30
2018-07-21T03:03:49.646Z,6.00
2018-07-21T03:05:11.105Z,6.20
2018-07-21T03:05:49.171Z,6.30
2018-07-21T03:06:48.683Z,6.20
2018-07-21T03:07:48.689Z,6.10
2018-07-21T03:08:48.676Z,5.90
2018-07-21T03:09:48.679Z,6.70
2018-07-21T03:10:51.174Z,6.30
2018-07-21T03:11:51.607Z,6.50
2018-07-21T03:12:49.173Z,6.50
2018-07-21T03:13:49.176Z,6.10
2018-07-21T03:16:20.924Z,6.30
2018-07-21T03:17:22.399Z,6.80
2018-07-21T03:18:20.922Z,6.20
2018-07-21T03:19:21.435Z,6.20
2018-07-21T03:20:21.426Z,6.40
2018-07-21T03:21:21.428Z,5.90
2018-07-21T03:22:21.427Z,6.60
2018-07-21T03:23:21.980Z,5.90
2018-07-21T03:25:55.755Z,6.40
2018-07-21T03:27:16.341Z,6.00
2018-07-21T03:29:25.499Z,6.30
2018-07-21T03:30:25.505Z,6.60
2018-07-21T03:31:25.502Z,6.40
2018-07-21T03:32:28.002Z,6.60
2018-07-21T03:33:26.002Z,6.30
2018-07-21T03:34:26.009Z,5.60
2018-07-21T03:35:26.003Z,6.30
2018-07-21T03:36:26.502Z,6.00
2018-07-21T03:37:27.530Z,6.50
2018-07-21T03:38:27.511Z,6.70
2018-07-21T03:39:27.501Z,6.20
2018-07-21T03:40:27.089Z,5.80
2018-07-21T03:41:27.003Z,5.90
2018-07-21T03:42:27.002Z,5.70
2018-07-21T03:43:27.002Z,6.10
2018-07-21T03:45:58.789Z,6.00
2018-07-21T03:47:00.790Z,6.60
2018-07-21T03:48:00.221Z,6.10
2018-07-21T03:50:30.543Z,6.50
2018-07-21T03:51:51.551Z,6.00
2018-07-21T03:52:30.550Z,6.30
2018-07-21T03:53:33.052Z,6.50
2018-07-21T03:54:52.058Z,6.00
2018-07-21T03:55:31.052Z,6.20
2018-07-21T03:56:31.051Z,5.90
2018-07-21T03:57:31.561Z,6.20
2018-07-21T03:58:31.551Z,5.90
2018-07-21T03:59:31.552Z,5.70
2018-07-21T04:00:31.557Z,6.80
2018-07-21T04:03:17.331Z,6.00
2018-07-21T04:05:34.874Z,6.00
2018-07-21T04:06:36.312Z,6.10
2018-07-21T04:07:55.848Z,6.00
2018-07-21T04:08:35.280Z,5.70
2018-07-21T04:11:06.568Z,6.10
2018-07-21T04:12:06.576Z,6.10
2018-07-21T04:13:06.572Z,5.90
2018-07-21T04:15:38.334Z,6.50
2018-07-21T04:16:43.772Z,6.30
2018-07-21T04:17:59.337Z,6.10
2018-07-21T04:20:30.681Z,5.10
2018-07-21T04:23:09.442Z,5.90
2018-07-21T04:23:42.447Z,6.00
2018-07-21T04:24:42.447Z,6.10
2018-07-21T04:25:42.947Z,5.70
2018-07-21T04:26:42.953Z,5.80
2018-07-21T04:27:42.946Z,6.30
2018-07-21T04:28:42.944Z,5.80
2018-07-21T04:33:07.141Z,5.70
2018-07-21T04:33:46.155Z,6.50
2018-07-21T04:34:47.148Z,5.70
2018-07-21T04:35:47.649Z,5.80
2018-07-21T04:36:48.099Z,6.20
2018-07-21T04:37:46.651Z,6.00
2018-07-21T04:38:46.660Z,5.60
2018-07-21T04:39:46.652Z,5.70
2018-07-21T04:40:50.083Z,6.10
2018-07-21T04:41:47.151Z,5.50
2018-07-21T04:42:47.152Z,5.50
2018-07-21T04:43:47.151Z,5.40
2018-07-21T04:45:12.640Z,5.70
2018-07-21T04:45:48.651Z,6.10
2018-07-21T04:46:47.583Z,5.70
2018-07-21T04:47:48.649Z,5.40
2018-07-21T04:50:40.398Z,5.70
2018-07-21T04:51:19.404Z,5.20
2018-07-21T04:52:19.403Z,6.00
2018-07-21T04:53:35.875Z,6.00
2018-07-21T04:54:19.903Z,5.80
2018-07-21T04:55:41.835Z,5.40
2018-07-21T04:56:40.904Z,5.20
2018-07-21T04:57:34.403Z,5.50
2018-07-21T04:58:35.860Z,5.70
2018-07-21T04:59:20.425Z,5.80
2018-07-21T05:00:41.464Z,6.10
2018-07-21T05:01:26.900Z,5.90
2018-07-21T05:02:20.905Z,5.50
2018-07-21T05:03:21.882Z,5.40
2018-07-21T05:04:20.903Z,5.50
2018-07-21T05:05:42.402Z,5.50
2018-07-21T05:07:52.806Z,5.70
2018-07-21T05:09:13.138Z,5.60
2018-07-21T05:09:52.837Z,5.30
2018-07-21T05:10:54.745Z,5.50
2018-07-21T05:11:54.746Z,5.80
2018-07-21T05:12:56.273Z,5.30
2018-07-21T05:13:53.363Z,5.30
2018-07-21T05:14:53.312Z,5.60
2018-07-21T05:15:53.314Z,5.80
2018-07-21T05:17:16.813Z,5.20
2018-07-21T05:20:56.623Z,5.60
2018-07-21T05:21:57.635Z,5.60
2018-07-21T05:22:56.622Z,5.40
2018-07-21T05:24:18.127Z,5.70
2018-07-21T05:25:03.130Z,5.60
2018-07-21T05:25:58.562Z,5.50
2018-07-21T05:26:57.129Z,5.70
2018-07-21T05:27:56.736Z,5.30
2018-07-21T05:29:11.639Z,5.30
2018-07-21T05:29:57.629Z,5.50
2018-07-21T05:30:57.629Z,5.60
2018-07-21T05:33:29.423Z,5.20
2018-07-21T05:34:56.395Z,5.90
2018-07-21T05:35:29.394Z,5.70
2018-07-21T05:36:50.893Z,5.30
2018-07-21T05:37:51.827Z,5.20
2018-07-21T05:38:29.904Z,5.60
2018-07-21T05:39:50.908Z,5.40
2018-07-21T05:40:51.395Z,5.60
2018-07-21T05:41:30.401Z,5.70
2018-07-21T05:42:30.394Z,5.60
2018-07-21T05:43:44.394Z,5.40
2018-07-21T05:44:51.894Z,5.20
2018-07-21T05:45:30.892Z,5.20
2018-07-21T05:46:30.893Z,5.30
2018-07-21T05:47:30.891Z,5.00
2018-07-21T05:48:33.392Z,5.40
2018-07-21T05:49:53.826Z,4.90
2018-07-21T05:50:30.737Z,5.30
2018-07-21T05:51:31.396Z,4.90
2018-07-21T05:55:34.572Z,5.20
2018-07-21T05:56:55.580Z,5.20
2018-07-21T05:57:34.579Z,6.00
2018-07-21T05:58:34.181Z,5.70
2018-07-21T06:02:38.253Z,5.30
2018-07-21T06:03:38.237Z,5.60
2018-07-21T06:04:38.227Z,5.60
2018-07-21T06:07:09.980Z,5.80
2018-07-21T06:08:09.991Z,5.80
2018-07-21T06:09:09.991Z,5.50
2018-07-21T06:10:11.485Z,6.00
2018-07-21T06:11:16.489Z,5.90
2018-07-21T06:12:10.485Z,5.50
2018-07-21T06:13:10.490Z,5.30
2018-07-21T06:14:10.994Z,5.50
2018-07-21T06:15:10.987Z,5.50
2018-07-21T06:16:10.995Z,5.10
2018-07-21T06:17:10.996Z,5.70
2018-07-21T06:18:11.488Z,5.80
2018-07-21T06:19:33.497Z,5.40
2018-07-21T06:20:11.486Z,5.80
2018-07-21T06:21:11.487Z,5.60
2018-07-21T06:22:11.988Z,5.50
2018-07-21T06:23:11.987Z,5.00
2018-07-21T06:24:11.988Z,5.60
2018-07-21T06:25:13.475Z,5.30
2018-07-21T06:26:12.497Z,5.60
2018-07-21T06:27:12.488Z,5.50
2018-07-21T06:28:34.486Z,5.40
2018-07-21T06:29:11.972Z,5.50
2018-07-21T06:33:36.984Z,5.20
2018-07-21T06:34:37.984Z,5.20
2018-07-21T06:35:15.989Z,5.00
2018-07-21T06:36:37.530Z,5.30
2018-07-21T06:37:16.491Z,5.10
2018-07-21T06:38:37.487Z,5.60
2018-07-21T06:39:16.489Z,5.10
2018-07-21T06:40:16.996Z,5.60
2018-07-21T06:43:09.421Z,5.10
2018-07-21T06:45:19.897Z,5.30
2018-07-21T06:46:19.907Z,5.20
2018-07-21T06:47:19.899Z,5.10
2018-07-21T06:48:41.399Z,5.30
2018-07-21T06:49:41.455Z,5.00
2018-07-21T06:50:20.392Z,5.40
2018-07-21T06:51:20.400Z,5.20
2018-07-21T06:52:41.901Z,4.70
2018-07-21T06:54:20.939Z,5.00
2018-07-21T06:55:41.898Z,5.60
2018-07-21T06:56:20.506Z,5.20
2018-07-21T06:58:52.788Z,5.20
2018-07-21T07:03:22.853Z,5.60
2018-07-21T07:03:55.789Z,5.20
2018-07-21T07:04:55.783Z,5.00
2018-07-21T07:07:26.832Z,5.10
2018-07-21T07:08:28.548Z,5.40
2018-07-21T07:09:30.024Z,5.00
2018-07-21T07:10:27.127Z,5.20
2018-07-21T07:11:48.214Z,5.20
2018-07-21T07:12:28.050Z,4.70
2018-07-21T07:13:28.062Z,4.80
2018-07-21T07:14:28.050Z,4.80
2018-07-21T07:15:30.558Z,5.10
2018-07-21T07:16:28.575Z,5.00
2018-07-21T07:17:28.550Z,5.10
2018-07-21T07:18:28.549Z,5.40
2018-07-21T07:19:32.482Z,4.70
2018-07-21T07:20:29.056Z,5.40
2018-07-21T07:21:29.050Z,4.90
2018-07-21T07:22:29.050Z,5.10
2018-07-21T07:23:31.482Z,5.00
2018-07-21T07:24:29.550Z,4.80
2018-07-21T07:25:29.550Z,5.40
2018-07-21T07:26:29.555Z,5.20
2018-07-21T07:27:30.056Z,4.90
2018-07-21T07:28:44.053Z,5.30
2018-07-21T07:29:30.053Z,4.80
2018-07-21T07:30:30.552Z,5.10
2018-07-21T07:31:30.552Z,5.10
2018-07-21T07:32:51.551Z,5.10
2018-07-21T07:33:30.567Z,4.90
2018-07-21T07:34:51.551Z,5.10
2018-07-21T07:35:31.049Z,5.00
2018-07-21T07:36:52.051Z,5.20
2018-07-21T07:37:52.054Z,5.10
2018-07-21T07:38:31.054Z,5.60
2018-07-21T07:39:31.552Z,5.20
2018-07-21T07:40:30.783Z,5.20
2018-07-21T07:41:31.553Z,4.90
2018-07-21T07:44:24.191Z,5.80
2018-07-21T07:46:55.708Z,5.20
2018-07-21T07:47:34.719Z,5.10
2018-07-21T07:48:35.675Z,5.60
2018-07-21T07:51:06.439Z,5.70
2018-07-21T07:52:06.455Z,5.50
2018-07-21T07:53:07.445Z,5.40
2018-07-21T07:54:27.950Z,5.60
2018-07-21T07:57:04.283Z,5.80
2018-07-21T07:59:31.870Z,5.40
2018-07-21T08:00:31.910Z,5.80
2018-07-21T08:01:31.877Z,5.30
2018-07-21T08:02:10.358Z,5.60
2018-07-21T08:03:13.375Z,5.20
2018-07-21T08:04:17.378Z,5.40
2018-07-21T08:05:31.715Z,5.10
2018-07-21T08:06:14.347Z,5.00
2018-07-21T08:07:10.954Z,5.30
2018-07-21T08:08:32.885Z,5.20
2018-07-21T08:09:11.878Z,5.60
2018-07-21T08:10:32.878Z,5.40
2018-07-21T08:11:11.938Z,5.80
2018-07-21T08:13:43.637Z,5.40
2018-07-21T08:14:43.644Z,5.30
2018-07-21T08:17:36.410Z,5.30
2018-07-21T08:18:15.492Z,6.40
2018-07-21T08:19:16.398Z,5.70
2018-07-21T08:20:15.914Z,5.80
2018-07-21T08:21:36.913Z,4.90
2018-07-21T08:22:15.921Z,5.00
2018-07-21T08:23:15.918Z,5.40
2018-07-21T08:24:16.421Z,5.40
2018-07-21T08:25:16.419Z,5.60
2018-07-21T08:26:16.425Z,5.30
2018-07-21T08:27:15.906Z,5.00
2018-07-21T08:29:48.171Z,5.20
2018-07-21T08:31:09.179Z,5.10
2018-07-21T08:31:48.180Z,5.30
2018-07-21T08:34:19.944Z,5.60
2018-07-21T08:35:42.407Z,5.20
2018-07-21T08:36:19.948Z,5.70
2018-07-21T08:37:22.451Z,5.20
2018-07-21T08:38:34.451Z,6.00
2018-07-21T08:39:21.886Z,5.70
2018-07-21T08:40:21.884Z,5.70
2018-07-21T08:43:13.247Z,5.30
2018-07-21T08:43:58.253Z,5.10
2018-07-21T08:44:52.255Z,5.20
2018-07-21T08:45:52.756Z,5.10
2018-07-21T08:46:52.782Z,5.70
2018-07-21T08:47:52.767Z,5.10
2018-07-21T08:48:52.752Z,5.30
2018-07-21T08:51:24.505Z,4.90
2018-07-21T08:52:24.515Z,5.40
2018-07-21T08:53:24.515Z,5.70
2018-07-21T08:56:18.212Z,5.80
2018-07-21T08:56:56.278Z,4.90
2018-07-21T08:57:56.787Z,4.80
2018-07-21T09:00:51.983Z,5.30
2018-07-21T09:01:28.051Z,5.40
2018-07-21T09:02:28.051Z,5.00
2018-07-21T09:03:28.551Z,5.00
2018-07-21T09:05:59.941Z,5.50
2018-07-21T09:07:22.953Z,5.50
2018-07-21T09:07:59.949Z,5.70
2018-07-21T09:09:00.451Z,5.40
2018-07-21T09:13:03.329Z,5.40
2018-07-21T09:14:04.710Z,5.40
2018-07-21T09:15:03.277Z,5.80
2018-07-21T09:16:03.291Z,5.40
2018-07-21T09:17:24.777Z,5.30
2018-07-21T09:18:03.777Z,5.30
2018-07-21T09:19:24.777Z,5.20
2018-07-21T09:20:04.776Z,4.90
2018-07-21T09:21:25.285Z,5.90
2018-07-21T09:22:10.277Z,5.50
2018-07-21T09:23:26.278Z,5.40
2018-07-21T09:25:35.973Z,5.20
2018-07-21T09:26:36.026Z,5.30
2018-07-21T09:27:35.983Z,5.30
2018-07-21T09:28:35.586Z,5.60
2018-07-21T09:29:36.480Z,5.60
2018-07-21T09:30:36.486Z,5.80
2018-07-21T09:31:36.486Z,5.80
2018-07-21T09:32:36.983Z,5.10
2018-07-21T09:33:36.216Z,5.00
2018-07-21T09:36:08.497Z,5.80
2018-07-21T09:37:08.504Z,5.10
2018-07-21T09:38:08.504Z,5.20
2018-07-21T09:39:09.001Z,4.80
2018-07-21T09:40:09.040Z,5.30
2018-07-21T09:41:09.009Z,5.30
2018-07-21T09:42:09.004Z,5.40
2018-07-21T09:43:09.505Z,5.30
2018-07-21T09:44:10.503Z,5.30
2018-07-21T09:45:09.512Z,5.20
2018-07-21T09:47:11.437Z,4.80
2018-07-21T09:48:10.006Z,5.20
2018-07-21T09:49:10.065Z,5.10
2018-07-21T09:50:09.484Z,5.30
2018-07-21T09:54:13.203Z,5.30
2018-07-21T09:55:13.211Z,5.40
2018-07-21T09:57:34.723Z,6.20
2018-07-21T09:58:16.185Z,5.60
2018-07-21T10:00:45.193Z,5.50
2018-07-21T10:02:06.197Z,5.70
2018-07-21T10:02:45.204Z,5.60
2018-07-21T10:04:07.697Z,5.10
2018-07-21T10:06:17.078Z,5.50
2018-07-21T10:07:17.094Z,5.70
2018-07-21T10:08:17.092Z,5.40
2018-07-21T10:11:09.839Z,5.20
2018-07-21T10:11:48.845Z,5.30
2018-07-21T10:13:09.856Z,5.70
2018-07-21T10:14:10.345Z,6.10
2018-07-21T10:15:09.560Z,5.00
2018-07-21T10:17:20.811Z,5.50
2018-07-21T10:18:20.820Z,5.00
2018-07-21T10:19:41.819Z,5.40
2018-07-21T10:22:15.033Z,5.10
2018-07-21T10:22:52.593Z,5.60
2018-07-21T10:24:13.597Z,5.50
2018-07-21T10:26:24.361Z,5.50
2018-07-21T10:27:24.370Z,5.40
2018-07-21T10:28:24.424Z,5.70
2018-07-21T10:30:56.169Z,5.10
2018-07-21T10:31:56.168Z,5.40
2018-07-21T10:32:56.176Z,5.20
2018-07-21T10:34:17.673Z,5.40
2018-07-21T10:34:56.668Z,5.40
2018-07-21T10:35:56.715Z,5.10
2018-07-21T10:36:56.682Z,5.60
2018-07-21T10:38:03.226Z,5.70
2018-07-21T10:39:19.169Z,5.60
2018-07-21T10:39:57.168Z,5.50
2018-07-21T10:40:57.171Z,4.90
2018-07-21T10:41:56.757Z,5.40
2018-07-21T10:43:18.674Z,5.00
2018-07-21T10:44:18.677Z,5.20
2018-07-21T10:45:11.671Z,5.40
2018-07-21T10:46:19.168Z,5.80
2018-07-21T10:46:57.401Z,5.00
2018-07-21T10:48:19.169Z,5.20
2018-07-21T10:48:58.188Z,5.10
2018-07-21T10:49:57.793Z,4.90
2018-07-21T10:51:01.668Z,5.40
2018-07-21T10:51:58.675Z,5.00
2018-07-21T10:52:58.719Z,5.30
2018-07-21T10:54:20.171Z,5.30
2018-07-21T10:55:02.102Z,5.00
2018-07-21T10:55:59.170Z,5.60
2018-07-21T10:57:20.171Z,5.40
2018-07-21T10:59:30.927Z,4.90
2018-07-21T11:00:31.932Z,5.80
2018-07-21T11:01:30.934Z,5.60
2018-07-21T11:02:54.443Z,5.10
2018-07-21T11:03:31.433Z,5.40
2018-07-21T11:06:23.956Z,5.20
2018-07-21T11:07:02.964Z,5.30
2018-07-21T11:08:03.537Z,5.00
2018-07-21T11:10:34.856Z,5.50
2018-07-21T11:13:05.686Z,5.10
2018-07-21T11:14:08.804Z,5.10
2018-07-21T11:15:06.465Z,5.90
2018-07-21T11:16:05.994Z,5.50
2018-07-21T11:18:38.257Z,5.10
2018-07-21T11:19:38.264Z,4.90
2018-07-21T11:20:38.265Z,5.30
2018-07-21T11:25:02.466Z,5.10
2018-07-21T11:25:41.479Z,5.80
2018-07-21T11:26:41.468Z,5.60
2018-07-21T11:28:03.979Z,5.70
2018-07-21T11:28:41.974Z,5.30
2018-07-21T11:30:02.981Z,6.70
2018-07-21T11:30:41.971Z,6.10
2018-07-21T11:32:02.561Z,5.50
2018-07-21T11:32:42.470Z,5.50
2018-07-21T11:33:42.478Z,5.40
2018-07-21T11:34:42.471Z,5.30
2018-07-21T11:38:47.044Z,5.50
2018-07-21T11:40:07.097Z,5.60
2018-07-21T11:41:09.590Z,5.60
2018-07-21T11:42:07.594Z,5.90
2018-07-21T11:44:20.102Z,5.70
2018-07-21T11:46:50.138Z,5.20
2018-07-21T11:47:50.127Z,5.30
2018-07-21T11:49:11.176Z,5.60
2018-07-21T11:49:50.138Z,5.20
2018-07-21T11:51:11.625Z,5.80
2018-07-21T11:52:13.128Z,4.90
2018-07-21T11:52:50.627Z,5.50
2018-07-21T11:53:50.623Z,5.40
2018-07-21T11:56:22.395Z,5.40
2018-07-21T11:57:21.771Z,5.60
2018-07-21T12:01:25.769Z,5.30
2018-07-21T12:02:25.777Z,5.70
2018-07-21T12:03:25.777Z,5.60
2018-07-21T12:05:57.549Z,5.40
2018-07-21T12:06:57.552Z,5.40
2018-07-21T12:07:58.053Z,5.40
2018-07-21T12:09:12.053Z,5.20
2018-07-21T12:09:58.060Z,5.20
2018-07-21T12:10:57.415Z,5.70
2018-07-21T12:11:58.053Z,5.60
2018-07-21T12:14:32.684Z,5.30
2018-07-21T12:15:30.694Z,5.50
2018-07-21T12:18:02.948Z,6.10
2018-07-21T12:19:02.954Z,6.00
2018-07-21T12:20:02.954Z,5.40
2018-07-21T12:21:03.465Z,6.40
2018-07-21T12:22:03.457Z,5.50
2018-07-21T12:23:03.455Z,5.90
2018-07-21T12:24:03.458Z,5.80
2018-07-21T12:25:04.963Z,5.60
2018-07-21T12:26:03.952Z,5.90
2018-07-21T12:27:03.955Z,5.60
2018-07-21T12:28:03.962Z,5.40
2018-07-21T12:32:07.185Z,5.30
2018-07-21T12:33:28.193Z,5.70
2018-07-21T12:34:08.675Z,5.70
2018-07-21T12:35:28.693Z,6.00
2018-07-21T12:36:06.949Z,5.60
2018-07-21T12:37:28.040Z,5.60
2018-07-21T12:38:07.692Z,5.60
2018-07-21T12:39:08.265Z,5.90
2018-07-21T12:40:08.223Z,6.00
2018-07-21T12:41:29.230Z,5.90
2018-07-21T12:42:08.196Z,5.80
2018-07-21T12:43:08.195Z,5.70
2018-07-21T12:45:39.966Z,5.90
2018-07-21T12:46:39.972Z,5.70
2018-07-21T12:48:00.972Z,5.70
2018-07-21T12:49:01.471Z,5.50
2018-07-21T12:50:01.471Z,5.30
2018-07-21T12:51:00.811Z,5.60
2018-07-21T12:51:40.475Z,5.70
2018-07-21T12:54:12.246Z,5.70
2018-07-21T12:55:34.265Z,5.70
2018-07-21T12:56:12.252Z,5.60
2018-07-21T12:57:11.854Z,6.00
2018-07-21T12:58:12.753Z,5.60
2018-07-21T12:59:33.753Z,5.50
2018-07-21T13:02:06.876Z,5.50
2018-07-21T13:03:06.403Z,5.70
2018-07-21T13:03:44.905Z,5.90
2018-07-21T13:04:46.905Z,5.40
2018-07-21T13:05:45.902Z,5.60
2018-07-21T13:06:46.369Z,5.30
2018-07-21T13:08:09.838Z,5.70
2018-07-21T13:08:46.911Z,5.60
2018-07-21T13:09:45.447Z,5.90
2018-07-21T13:10:45.406Z,6.00
2018-07-21T13:11:51.905Z,5.70
2018-07-21T13:14:16.591Z,5.20
2018-07-21T13:15:18.294Z,5.20
2018-07-21T13:16:17.296Z,5.50
2018-07-21T13:17:16.912Z,5.20
2018-07-21T13:18:38.799Z,5.20
2018-07-21T13:19:17.804Z,5.40
2018-07-21T13:20:18.296Z,5.20
2018-07-21T13:24:20.992Z,4.90
2018-07-21T13:28:23.967Z,5.20
2018-07-21T13:29:26.906Z,5.50
2018-07-21T13:30:44.975Z,5.80
2018-07-21T13:31:25.941Z,5.90
2018-07-21T13:32:24.475Z,5.90
2018-07-21T13:33:24.475Z,5.60
2018-07-21T13:34:27.907Z,5.30
2018-07-21T13:35:30.975Z,5.70
2018-07-21T13:36:45.982Z,5.80
2018-07-21T13:37:24.401Z,5.40
2018-07-21T13:38:26.909Z,5.30
2018-07-21T13:41:17.737Z,5.40
2018-07-21T13:41:56.738Z,5.30
2018-07-21T13:42:56.744Z,5.50
2018-07-21T13:44:18.300Z,5.70
2018-07-21T13:45:01.206Z,5.50
2018-07-21T13:46:18.241Z,6.50
2018-07-21T13:46:57.244Z,5.40
2018-07-21T13:48:20.745Z,5.70
2018-07-21T13:48:56.985Z,5.70
2018-07-21T13:49:57.753Z,5.80
2018-07-21T13:50:57.744Z,5.80
2018-07-21T13:51:58.244Z,6.90
2018-07-21T13:52:58.244Z,5.50
2018-07-21T13:53:58.266Z,5.60
2018-07-21T13:54:58.271Z,5.70
2018-07-21T13:55:58.752Z,6.00
2018-07-21T13:57:19.749Z,6.10
2018-07-21T13:57:58.746Z,5.60
2018-07-21T13:59:00.745Z,6.10
2018-07-21T14:00:20.248Z,6.10
2018-07-21T14:01:00.177Z,6.00
2018-07-21T14:02:19.591Z,6.00
2018-07-21T14:02:59.245Z,5.80
2018-07-21T14:03:59.248Z,5.40
2018-07-21T14:05:03.177Z,5.70
2018-07-21T14:05:58.973Z,5.10
2018-07-21T14:07:20.743Z,4.70
2018-07-21T14:07:59.745Z,5.00
2018-07-21T14:09:02.250Z,4.90
2018-07-21T14:10:00.255Z,5.00
2018-07-21T14:11:22.245Z,5.40
2018-07-21T14:12:00.247Z,4.80
2018-07-21T14:14:55.033Z,4.90
2018-07-21T14:15:31.390Z,5.10
2018-07-21T14:16:32.042Z,5.10
2018-07-21T14:19:03.802Z,5.10
2018-07-21T14:20:03.806Z,4.90
2018-07-21T14:21:03.811Z,5.20
2018-07-21T14:22:10.314Z,5.00
2018-07-21T14:26:07.205Z,4.90
2018-07-21T14:27:29.210Z,4.90
2018-07-21T14:28:08.210Z,4.80
2018-07-21T14:29:30.657Z,4.80
2018-07-21T14:30:21.713Z,4.50
2018-07-21T14:31:08.710Z,5.00
2018-07-21T14:32:07.713Z,5.10
2018-07-21T14:33:23.211Z,5.10
2018-07-21T14:34:08.218Z,4.90
2018-07-21T14:35:29.217Z,4.50
2018-07-21T14:36:08.335Z,5.00
2018-07-21T14:37:30.711Z,4.70
2018-07-21T14:38:29.717Z,4.80
2018-07-21T14:39:08.713Z,4.60
2018-07-21T14:40:08.713Z,4.70
2018-07-21T14:41:30.215Z,4.60
2018-07-21T14:42:12.147Z,5.20
2018-07-21T14:43:23.219Z,4.60
2018-07-21T14:44:09.213Z,4.90
2018-07-21T14:45:09.214Z,5.00
2018-07-21T14:49:13.169Z,4.70
2018-07-21T14:50:13.177Z,4.50
2018-07-21T14:51:13.178Z,4.60
2018-07-21T14:53:44.231Z,5.00
2018-07-21T14:55:05.996Z,4.50
2018-07-21T14:55:44.958Z,4.20
2018-07-21T14:57:06.457Z,4.10
2018-07-21T14:58:07.889Z,4.10
2018-07-21T14:58:45.460Z,4.30
2018-07-21T14:59:45.458Z,4.60
2018-07-21T15:00:59.958Z,4.50
2018-07-21T15:01:51.960Z,4.20
2018-07-21T15:02:45.957Z,4.20
2018-07-21T15:03:45.958Z,3.90
2018-07-21T15:04:47.422Z,4.40
2018-07-21T15:06:08.456Z,4.00
2018-07-21T15:06:50.937Z,4.10
2018-07-21T15:07:46.457Z,3.90
2018-07-21T15:10:18.242Z,3.90
2018-07-21T15:11:18.250Z,3.70
2018-07-21T15:12:18.302Z,4.10
2018-07-21T15:13:18.760Z,3.80
2018-07-21T15:14:18.755Z,3.90
2018-07-21T15:15:39.750Z,3.70
2018-07-21T15:16:18.751Z,3.40
2018-07-21T15:17:19.249Z,3.90
2018-07-21T15:18:33.254Z,3.90
2018-07-21T15:19:19.251Z,3.50
2018-07-21T15:20:40.251Z,3.60
2018-07-21T15:21:42.750Z,3.70
2018-07-21T15:22:19.748Z,4.20
2018-07-21T15:23:19.751Z,3.80
2018-07-21T15:24:19.248Z,4.30
2018-07-21T15:26:51.529Z,4.40
2018-07-21T15:27:51.548Z,4.40
2018-07-21T15:28:51.541Z,4.00
2018-07-21T15:29:52.044Z,3.80
2018-07-21T15:30:53.501Z,3.90
2018-07-21T15:31:54.990Z,4.30
2018-07-21T15:32:53.475Z,4.20
2018-07-21T15:33:58.535Z,4.00
2018-07-21T15:36:23.808Z,3.90
2018-07-21T15:37:23.818Z,3.80
2018-07-21T15:38:23.817Z,3.60
2018-07-21T15:39:24.318Z,3.30
2018-07-21T15:42:18.720Z,3.60
2018-07-21T15:44:29.733Z,3.80
2018-07-21T15:45:27.249Z,3.00
2018-07-21T15:46:28.707Z,3.30
2018-07-21T15:47:26.968Z,3.30
2018-07-21T15:48:33.739Z,3.20
2018-07-21T15:49:27.740Z,3.20
2018-07-21T15:50:29.238Z,3.10
2018-07-21T15:51:28.246Z,3.50
2018-07-21T15:52:28.295Z,3.40
2018-07-21T15:53:28.239Z,3.60
2018-07-21T15:54:28.745Z,3.60
2018-07-21T15:55:28.740Z,3.20
2018-07-21T15:56:28.741Z,3.60
2018-07-21T15:57:28.742Z,3.70
2018-07-21T15:58:29.240Z,3.50
2018-07-21T15:59:50.245Z,3.70
2018-07-21T16:00:51.239Z,3.30
2018-07-21T16:01:29.261Z,3.40
2018-07-21T16:02:29.794Z,3.50
2018-07-21T16:03:29.741Z,3.40
2018-07-21T16:04:29.741Z,3.30
2018-07-21T16:05:29.744Z,3.70
2018-07-21T16:06:30.242Z,3.50
2018-07-21T16:09:01.629Z,3.10
2018-07-21T16:10:01.710Z,3.20
2018-07-21T16:11:01.638Z,3.40
2018-07-21T16:12:02.145Z,3.20
2018-07-21T16:13:02.137Z,3.40
2018-07-21T16:14:03.591Z,3.50
2018-07-21T16:15:03.870Z,3.40
2018-07-21T16:16:10.070Z,3.40
2018-07-21T16:17:02.636Z,3.10